Time;durP1;ratioP1;P1;durP2;ratioP2;P2;SDS_P1;SDS_P2;PMS_P1;PMS_P2;Temp;Humidity;BMP_temperature;BMP_pressure;BME280_temperature;BME280_humidity;BME280_pressure;Samples;Min_cycle;Max_cycle;Signal;HPM_P1;HPM_P2
2022/12/12 00:02:25;;;;;;;26.33;13.80;;;2.40;44.90;;;;;;4994423;28;20228;-47
2022/12/12 00:04:50;;;;;;;19.10;11.03;;;2.40;44.90;;;;;;4994634;28;20185;-47
2022/12/12 00:07:16;;;;;;;21.10;12.10;;;2.40;44.80;;;;;;4994566;28;20233;-48
2022/12/12 00:09:42;;;;;;;30.03;14.30;;;2.40;44.80;;;;;;4994443;28;20198;-49
2022/12/12 00:12:08;;;;;;;24.50;11.90;;;2.40;44.80;;;;;;4994097;28;20197;-48
2022/12/12 00:14:33;;;;;;;25.23;13.60;;;2.40;44.80;;;;;;4994359;28;20309;-48
2022/12/12 00:16:59;;;;;;;35.50;14.73;;;2.40;44.90;;;;;;4994305;28;20174;-48
2022/12/12 00:19:25;;;;;;;28.43;15.53;;;2.40;44.70;;;;;;4994251;28;20190;-48
2022/12/12 00:21:51;;;;;;;24.33;13.57;;;2.40;44.80;;;;;;4994352;28;20417;-47
2022/12/12 00:24:16;;;;;;;23.43;12.30;;;2.40;44.50;;;;;;4994152;28;20413;-49
2022/12/12 00:26:42;;;;;;;25.10;15.07;;;2.40;44.70;;;;;;4994214;28;20409;-48
2022/12/12 00:29:09;;;;;;;24.43;12.67;;;2.40;44.70;;;;;;4994038;28;20202;-49
2022/12/12 00:31:35;;;;;;;28.35;12.90;;;2.40;44.70;;;;;;4993905;28;20456;-49
2022/12/12 00:34:01;;;;;;;25.80;13.70;;;2.50;44.80;;;;;;4993898;28;20181;-48
2022/12/12 00:36:29;;;;;;;22.60;13.27;;;2.50;44.70;;;;;;4994106;28;20258;-48
2022/12/12 00:38:55;;;;;;;28.02;13.90;;;2.50;44.70;;;;;;4993883;28;20878;-48
2022/12/12 00:41:21;;;;;;;28.67;11.43;;;2.50;44.60;;;;;;4993925;28;20174;-48
2022/12/12 00:43:47;;;;;;;25.37;11.80;;;2.50;44.60;;;;;;4993593;28;20263;-48
2022/12/12 00:46:15;;;;;;;31.45;13.85;;;2.50;44.70;;;;;;4993983;28;20441;-48
2022/12/12 00:48:41;;;;;;;26.30;13.15;;;2.50;44.70;;;;;;4993575;28;20198;-48
2022/12/12 00:51:09;;;;;;;26.33;15.47;;;2.50;44.80;;;;;;4993842;28;20190;-48
2022/12/12 00:53:36;;;;;;;24.23;13.05;;;2.60;44.70;;;;;;4993427;28;20986;-48
2022/12/12 00:56:03;;;;;;;28.50;13.68;;;2.60;44.60;;;;;;4993528;28;20190;-49
2022/12/12 00:58:29;;;;;;;22.83;13.15;;;2.60;45.40;;;;;;4993486;28;20648;-49
2022/12/12 01:00:55;;;;;;;23.67;12.23;;;2.60;44.60;;;;;;4993164;28;20734;-48
2022/12/12 01:03:21;;;;;;;23.13;13.20;;;2.60;44.50;;;;;;4993380;28;20174;-49
2022/12/12 01:05:48;;;;;;;24.65;12.43;;;2.60;44.60;;;;;;4993442;28;20179;-49
2022/12/12 01:08:13;;;;;;;20.98;11.15;;;2.70;44.60;;;;;;4993392;28;20172;-48
2022/12/12 01:10:40;;;;;;;27.23;15.20;;;2.70;44.60;;;;;;4993266;28;20209;-48
2022/12/12 01:13:06;;;;;;;28.60;14.75;;;2.60;44.30;;;;;;4992974;28;20493;-49
2022/12/12 01:15:31;;;;;;;31.30;14.30;;;2.60;44.50;;;;;;4993503;28;20316;-48
2022/12/12 01:17:57;;;;;;;30.07;14.10;;;2.60;44.50;;;;;;4993260;28;20170;-49
2022/12/12 01:20:26;;;;;;;27.47;12.57;;;2.70;44.60;;;;;;4993128;28;20214;-48
2022/12/12 01:22:52;;;;;;;26.35;13.20;;;2.70;44.70;;;;;;4992974;28;20172;-48
2022/12/12 01:25:18;;;;;;;25.20;12.45;;;2.70;44.60;;;;;;4993377;28;20205;-48
2022/12/12 01:27:45;;;;;;;24.55;13.18;;;2.70;44.60;;;;;;4993055;28;20585;-48
2022/12/12 01:30:13;;;;;;;24.52;11.80;;;2.80;44.60;;;;;;4993151;28;20205;-48
2022/12/12 01:32:39;;;;;;;23.90;13.35;;;2.80;44.50;;;;;;4992718;28;20721;-48
2022/12/12 01:35:07;;;;;;;26.57;14.40;;;2.70;44.40;;;;;;4992946;28;20183;-48
2022/12/12 01:37:37;;;;;;;22.05;12.25;;;2.70;44.30;;;;;;4993192;28;20181;-49
2022/12/12 01:40:05;;;;;;;25.15;12.68;;;2.50;44.30;;;;;;4992710;28;20198;-48
2022/12/12 01:42:31;;;;;;;25.30;13.23;;;2.50;44.50;;;;;;4992813;28;20183;-48
2022/12/12 01:44:57;;;;;;;23.60;11.88;;;2.40;44.60;;;;;;4992833;28;20644;-48
2022/12/12 01:47:23;;;;;;;26.23;12.80;;;2.50;44.70;;;;;;4993202;28;20233;-48
2022/12/12 01:49:55;;;;;;;25.75;13.98;;;2.40;44.70;;;;;;4992641;28;20516;-48
2022/12/12 01:52:43;;;;;;;21.85;13.85;;;2.40;44.60;;;;;;4992704;28;20212;-49
2022/12/12 01:55:14;;;;;;;24.35;12.77;;;2.30;44.70;;;;;;4992774;28;20155;-48
2022/12/12 01:57:44;;;;;;;18.70;13.05;;;2.30;45.70;;;;;;4992967;28;20166;-48
2022/12/12 02:00:11;;;;;;;22.20;11.95;;;2.30;45.10;;;;;;4992639;28;20197;-49
2022/12/12 02:02:38;;;;;;;21.98;12.85;;;2.30;45.20;;;;;;4992371;28;20607;-48
2022/12/12 02:05:14;;;;;;;30.25;12.65;;;2.30;45.20;;;;;;4992492;28;20188;-49
2022/12/12 02:07:40;;;;;;;32.22;14.73;;;2.40;45.00;;;;;;4992574;28;20651;-48
2022/12/12 02:10:07;;;;;;;28.70;13.33;;;2.30;45.00;;;;;;4992499;28;20245;-48
2022/12/12 02:12:32;;;;;;;28.63;15.02;;;2.40;45.10;;;;;;4993206;28;20236;-49
2022/12/12 02:14:58;;;;;;;24.97;13.03;;;2.40;45.10;;;;;;4996680;28;20220;-48
2022/12/12 02:17:56;;;;;;;25.77;12.50;;;2.40;44.90;;;;;;4996579;28;20171;-48
2022/12/12 02:20:44;;;;;;;27.83;13.30;;;2.40;44.90;;;;;;4996476;28;21018;-48
2022/12/12 02:23:30;;;;;;;27.52;14.00;;;2.50;45.10;;;;;;4996598;28;20158;-48
2022/12/12 02:26:13;;;;;;;31.45;13.82;;;2.40;45.00;;;;;;4996400;28;20673;-48
2022/12/12 02:29:24;;;;;;;24.08;14.65;;;2.50;45.10;;;;;;4996320;28;20198;-48
2022/12/12 02:32:01;;;;;;;24.23;13.55;;;2.50;45.00;;;;;;4976431;28;20210;-49
2022/12/12 02:34:43;;;;;;;24.30;14.05;;;2.50;44.90;;;;;;4996191;28;20178;-49
2022/12/12 02:37:20;;;;;;;29.70;15.52;;;2.50;45.00;;;;;;4996288;28;20209;-48
2022/12/12 02:39:46;;;;;;;28.15;14.20;;;2.50;44.90;;;;;;4996074;28;20203;-48
2022/12/12 02:42:18;;;;;;;21.63;12.17;;;2.50;45.00;;;;;;4995996;28;20182;-48
2022/12/12 02:45:02;;;;;;;22.58;13.02;;;2.50;45.00;;;;;;4996300;28;20186;-48
2022/12/12 02:47:34;;;;;;;22.60;11.73;;;2.50;44.90;;;;;;4996052;28;20182;-48
2022/12/12 02:50:07;;;;;;;30.70;15.73;;;2.50;45.20;;;;;;4995837;28;20264;-49
2022/12/12 02:52:33;;;;;;;28.20;16.27;;;2.50;45.10;;;;;;4995711;28;20201;-49
2022/12/12 02:54:59;;;;;;;26.40;13.55;;;2.40;45.20;;;;;;4995827;28;20166;-48
2022/12/12 02:57:26;;;;;;;25.63;13.77;;;2.40;45.20;;;;;;4995993;28;20248;-49
2022/12/12 03:00:00;;;;;;;22.60;13.50;;;2.40;45.40;;;;;;4995741;28;20198;-48
2022/12/12 03:02:44;;;;;;;32.40;15.90;;;2.40;45.40;;;;;;4995525;28;20647;-48
2022/12/12 03:08:50;;;;;;;25.20;13.25;;;2.40;45.30;;;;;;4995906;28;20576;-48
2022/12/12 03:11:36;;;;;;;25.02;12.48;;;2.40;45.40;;;;;;4995565;28;20212;-48
2022/12/12 03:14:32;;;;;;;25.77;13.25;;;2.50;45.50;;;;;;4995416;28;20256;-48
2022/12/12 03:17:09;;;;;;;30.75;12.80;;;2.50;46.30;;;;;;4958823;28;20198;-48
2022/12/12 03:20:26;;;;;;;30.77;14.15;;;2.40;45.50;;;;;;4995442;28;20194;-48
2022/12/12 03:22:59;;;;;;;28.67;14.43;;;2.40;45.60;;;;;;4978005;28;20214;-49
2022/12/12 03:25:34;;;;;;;19.83;11.07;;;2.40;45.50;;;;;;4995191;28;20217;-48
2022/12/12 03:28:12;;;;;;;23.10;13.50;;;2.50;45.60;;;;;;4995370;28;20155;-49
2022/12/12 03:30:43;;;;;;;30.27;15.38;;;2.50;45.60;;;;;;4994981;28;20978;-48
2022/12/12 03:33:20;;;;;;;26.52;15.10;;;2.40;45.60;;;;;;4995117;28;20189;-48
2022/12/12 03:35:54;;;;;;;30.90;15.43;;;2.40;45.60;;;;;;4995147;28;20628;-49
2022/12/12 03:38:27;;;;;;;27.85;14.43;;;2.40;45.60;;;;;;4995148;28;20655;-49
2022/12/12 03:40:55;;;;;;;29.02;14.10;;;2.50;45.80;;;;;;4994987;28;20198;-49
2022/12/12 03:43:25;;;;;;;26.10;14.40;;;2.50;45.70;;;;;;4995082;28;20229;-48
2022/12/12 03:46:28;;;;;;;31.60;14.13;;;2.50;45.80;;;;;;4994872;28;20652;-48
2022/12/12 03:49:12;;;;;;;23.10;14.50;;;2.50;45.60;;;;;;4954446;28;20281;-47
2022/12/12 03:51:59;;;;;;;27.15;14.63;;;2.40;45.60;;;;;;4994845;28;20209;-48
2022/12/12 03:54:28;;;;;;;27.55;14.75;;;2.40;46.00;;;;;;4994836;28;20154;-48
2022/12/12 03:57:08;;;;;;;27.58;15.02;;;2.30;46.00;;;;;;4994828;28;20171;-48
2022/12/12 04:00:00;;;;;;;23.98;13.25;;;2.40;46.00;;;;;;4995147;28;20309;-48
2022/12/12 04:02:28;;;;;;;25.80;14.80;;;2.40;45.80;;;;;;4994762;28;20207;-48
2022/12/12 04:05:14;;;;;;;25.77;13.57;;;2.50;45.90;;;;;;4994749;28;20187;-49
2022/12/12 04:07:48;;;;;;;22.15;12.48;;;2.50;45.80;;;;;;4994880;28;20245;-48
2022/12/12 04:13:16;;;;;;;29.60;11.80;;;2.60;45.70;;;;;;4994598;28;20355;-49
2022/12/12 04:16:07;;;;;;;28.15;14.30;;;2.60;45.60;;;;;;4994701;28;20218;-49
2022/12/12 04:18:54;;;;;;;25.30;13.35;;;2.70;45.80;;;;;;4994318;28;20169;-49
2022/12/12 04:24:21;;;;;;;31.05;15.02;;;2.60;45.60;;;;;;4994097;28;20675;-48
2022/12/12 04:27:08;;;;;;;30.80;14.57;;;2.70;45.70;;;;;;4994189;28;20170;-48
2022/12/12 04:29:58;;;;;;;22.92;13.43;;;2.60;45.60;;;;;;4994318;28;20204;-48
2022/12/12 04:32:57;;;;;;;22.63;14.55;;;2.60;45.80;;;;;;4993790;28;20217;-49
2022/12/12 04:35:45;;;;;;;27.75;14.45;;;2.50;45.90;;;;;;4993404;28;20175;-48
2022/12/12 04:38:20;;;;;;;20.30;11.80;;;2.50;46.10;;;;;;4994309;28;20189;-49
2022/12/12 04:40:50;;;;;;;26.55;13.90;;;2.50;46.20;;;;;;4993894;28;20599;-49
2022/12/12 04:43:32;;;;;;;22.42;12.18;;;2.50;46.20;;;;;;4993587;28;20190;-48
2022/12/12 04:46:07;;;;;;;30.00;13.10;;;2.50;46.20;;;;;;4994035;28;20173;-49
2022/12/12 04:49:11;;;;;;;28.13;12.07;;;2.60;46.20;;;;;;4993736;28;20190;-50
2022/12/12 04:51:44;;;;;;;26.08;13.55;;;2.60;46.10;;;;;;4989612;28;20210;-49
2022/12/12 04:54:18;;;;;;;18.70;10.27;;;2.70;46.20;;;;;;4993813;28;20244;-48
2022/12/12 04:56:47;;;;;;;24.15;12.95;;;2.70;46.20;;;;;;4993782;28;20182;-48
2022/12/12 04:59:13;;;;;;;29.67;16.73;;;2.70;46.10;;;;;;4993396;28;20237;-50
2022/12/12 05:01:52;;;;;;;26.07;13.10;;;2.70;46.10;;;;;;4993561;28;20206;-50
2022/12/12 05:04:45;;;;;;;28.30;12.05;;;2.70;46.10;;;;;;4993394;28;20186;-50
2022/12/12 05:07:34;;;;;;;27.63;13.70;;;2.60;46.00;;;;;;4993356;28;20187;-50
2022/12/12 05:10:01;;;;;;;25.23;13.38;;;2.60;46.10;;;;;;4993398;28;20305;-50
2022/12/12 05:12:27;;;;;;;21.08;12.50;;;2.60;46.20;;;;;;4992973;28;20210;-51
2022/12/12 05:14:53;;;;;;;27.75;14.98;;;2.60;46.10;;;;;;4993457;28;20188;-50
2022/12/12 05:17:26;;;;;;;22.90;14.23;;;2.70;46.20;;;;;;4993449;28;20541;-50
2022/12/12 05:19:51;;;;;;;18.65;11.13;;;2.60;46.20;;;;;;4993272;28;20433;-48
2022/12/12 05:22:17;;;;;;;29.03;15.20;;;2.60;46.50;;;;;;4993060;28;20301;-50
2022/12/12 05:24:43;;;;;;;25.23;13.40;;;2.60;46.50;;;;;;4993489;28;20723;-50
2022/12/12 05:27:11;;;;;;;29.73;14.60;;;2.60;46.50;;;;;;4993012;28;20230;-50
2022/12/12 05:29:37;;;;;;;26.48;12.20;;;2.60;46.40;;;;;;4993268;28;20198;-50
2022/12/12 05:32:03;;;;;;;25.80;13.07;;;2.60;46.40;;;;;;4992640;28;20205;-50
2022/12/12 05:34:28;;;;;;;28.60;13.63;;;2.60;46.40;;;;;;4993046;28;20452;-50
2022/12/12 05:36:54;;;;;;;32.50;17.33;;;2.60;47.10;;;;;;4993107;28;20433;-50
2022/12/12 05:39:21;;;;;;;29.30;14.27;;;2.60;46.60;;;;;;4992853;28;20742;-49
2022/12/12 05:41:46;;;;;;;36.65;16.30;;;2.60;46.60;;;;;;4992664;28;20178;-49
2022/12/12 05:44:12;;;;;;;24.27;13.03;;;2.60;46.80;;;;;;4992908;28;20216;-49
2022/12/12 05:46:38;;;;;;;27.63;13.10;;;2.60;46.80;;;;;;4993035;28;20277;-50
2022/12/12 05:49:04;;;;;;;25.23;12.47;;;2.60;46.90;;;;;;4992512;28;20217;-50
2022/12/12 05:51:30;;;;;;;23.98;13.68;;;2.50;47.00;;;;;;4992952;28;20201;-50
2022/12/12 05:53:56;;;;;;;20.40;13.27;;;2.50;47.20;;;;;;4992952;28;20567;-50
2022/12/12 05:56:21;;;;;;;28.97;15.77;;;2.40;47.20;;;;;;4992642;28;20423;-50
2022/12/12 05:58:47;;;;;;;22.60;11.90;;;2.40;47.30;;;;;;4992609;28;20667;-50
2022/12/12 06:01:13;;;;;;;30.83;14.63;;;2.40;47.30;;;;;;4992786;28;20270;-50
2022/12/12 06:03:39;;;;;;;28.90;12.17;;;2.40;47.30;;;;;;4992342;28;20181;-50
2022/12/12 06:06:05;;;;;;;28.53;16.13;;;2.50;47.30;;;;;;4992603;28;20413;-49
2022/12/12 06:08:30;;;;;;;34.33;13.53;;;2.50;47.40;;;;;;4992741;28;20185;-49
2022/12/12 06:10:56;;;;;;;25.63;12.53;;;2.50;47.20;;;;;;4992568;28;20567;-50
2022/12/12 06:13:22;;;;;;;30.67;14.23;;;2.60;47.20;;;;;;4992515;28;20178;-50
2022/12/12 06:15:47;;;;;;;31.03;15.30;;;2.60;47.80;;;;;;4992750;28;20181;-51
2022/12/12 06:18:13;;;;;;;26.33;14.30;;;2.60;47.00;;;;;;4992558;28;20254;-50
2022/12/12 06:20:39;;;;;;;22.80;12.82;;;2.70;47.00;;;;;;4992335;28;20191;-51
2022/12/12 06:23:05;;;;;;;26.27;14.60;;;2.70;47.10;;;;;;4992242;28;20176;-50
2022/12/12 06:25:31;;;;;;;24.50;12.83;;;2.70;46.90;;;;;;4992517;28;20943;-50
2022/12/12 06:27:57;;;;;;;26.87;16.33;;;2.70;47.10;;;;;;4992259;28;20174;-51
2022/12/12 06:30:22;;;;;;;25.30;13.30;;;2.70;46.90;;;;;;4992271;28;20248;-50
2022/12/12 06:32:48;;;;;;;24.80;13.57;;;2.70;46.90;;;;;;4992109;28;20198;-50
2022/12/12 06:35:14;;;;;;;22.37;14.07;;;2.70;47.10;;;;;;4992317;28;20175;-50
2022/12/12 06:37:40;;;;;;;25.80;14.55;;;2.50;47.40;;;;;;4992255;28;20411;-50
2022/12/12 06:40:07;;;;;;;28.17;13.80;;;2.50;47.70;;;;;;4991995;28;20278;-50
2022/12/12 06:42:33;;;;;;;27.40;14.32;;;2.50;47.60;;;;;;4992234;28;20416;-50
2022/12/12 06:44:59;;;;;;;22.93;12.77;;;2.60;47.40;;;;;;4992434;28;20734;-50
2022/12/12 06:47:25;;;;;;;24.93;13.87;;;2.60;47.30;;;;;;4992176;28;20592;-50
2022/12/12 06:49:51;;;;;;;33.63;14.00;;;2.60;47.30;;;;;;4991907;28;20454;-50
2022/12/12 06:52:16;;;;;;;29.55;14.82;;;2.50;47.30;;;;;;4991898;28;20512;-50
2022/12/12 06:54:42;;;;;;;24.37;12.50;;;2.50;47.30;;;;;;4974643;28;20175;-50
2022/12/12 06:57:08;;;;;;;28.30;13.37;;;2.50;47.40;;;;;;4992261;28;20178;-48
2022/12/12 06:59:33;;;;;;;24.30;13.73;;;2.50;47.50;;;;;;4994156;28;20277;-49
2022/12/12 07:01:59;;;;;;;26.00;13.80;;;2.50;47.50;;;;;;4995526;28;20213;-50
2022/12/12 07:04:25;;;;;;;25.80;15.17;;;2.50;47.60;;;;;;4995742;28;20175;-50
2022/12/12 07:06:51;;;;;;;27.17;15.40;;;2.40;47.60;;;;;;4995891;28;20925;-51
2022/12/12 07:09:18;;;;;;;24.42;14.90;;;2.40;47.70;;;;;;4995409;28;20802;-50
2022/12/12 07:11:44;;;;;;;26.98;16.13;;;2.50;47.70;;;;;;4995377;28;20611;-50
2022/12/12 07:14:10;;;;;;;27.63;16.45;;;2.50;47.80;;;;;;4995281;28;20166;-50
2022/12/12 07:16:36;;;;;;;29.00;16.08;;;2.50;47.70;;;;;;4995479;28;20707;-49
2022/12/12 07:19:02;;;;;;;25.27;15.83;;;2.60;47.60;;;;;;4995370;28;20211;-50
2022/12/12 07:21:28;;;;;;;20.30;13.25;;;2.60;47.40;;;;;;4995464;28;20846;-51
2022/12/12 07:23:55;;;;;;;32.10;16.33;;;2.60;47.30;;;;;;4995032;28;20261;-50
2022/12/12 07:26:23;;;;;;;26.40;14.48;;;2.60;47.40;;;;;;4995520;28;20264;-50
2022/12/12 07:28:50;;;;;;;24.25;12.98;;;2.60;47.40;;;;;;4995481;28;20206;-51
2022/12/12 07:31:18;;;;;;;26.77;13.85;;;2.50;47.30;;;;;;4995069;28;20269;-50
2022/12/12 07:33:44;;;;;;;26.35;13.57;;;2.50;47.30;;;;;;4994906;28;20175;-49
2022/12/12 07:36:10;;;;;;;21.97;13.40;;;2.50;47.30;;;;;;4995122;28;20267;-50
2022/12/12 07:38:36;;;;;;;30.88;14.50;;;2.40;47.20;;;;;;4994859;28;20919;-50
2022/12/12 07:41:07;;;;;;;26.93;15.27;;;2.30;47.10;;;;;;4995285;28;20186;-50
2022/12/12 07:43:35;;;;;;;30.05;15.65;;;2.30;47.60;;;;;;4994685;28;20853;-50
2022/12/12 07:46:01;;;;;;;30.38;15.20;;;2.20;47.40;;;;;;4994918;28;20187;-49
2022/12/12 07:48:27;;;;;;;28.80;16.45;;;2.30;47.70;;;;;;4994968;28;20182;-48
2022/12/12 07:50:53;;;;;;;26.02;13.50;;;2.30;47.60;;;;;;4994642;28;20187;-50
2022/12/12 07:53:19;;;;;;;26.70;15.23;;;2.40;47.40;;;;;;4994569;28;20274;-50
2022/12/12 07:55:46;;;;;;;29.50;16.50;;;2.40;47.10;;;;;;4994931;28;20206;-49
2022/12/12 07:58:11;;;;;;;30.08;14.98;;;2.50;47.20;;;;;;4994711;28;20658;-50
2022/12/12 08:00:38;;;;;;;23.07;16.00;;;2.50;47.10;;;;;;4995019;28;20203;-50
2022/12/12 08:03:03;;;;;;;24.13;15.02;;;2.50;47.00;;;;;;4994372;28;20181;-50
2022/12/12 08:05:29;;;;;;;23.30;13.17;;;2.60;46.90;;;;;;4994622;28;20301;-50
2022/12/12 08:07:55;;;;;;;21.33;13.67;;;2.60;46.70;;;;;;4994767;28;20312;-49
2022/12/12 08:10:21;;;;;;;22.00;13.17;;;2.60;46.50;;;;;;4993586;28;20667;-50
2022/12/12 08:12:46;;;;;;;37.00;15.43;;;2.50;46.50;;;;;;4994382;28;20896;-50
2022/12/12 08:15:15;;;;;;;26.90;15.07;;;2.60;46.60;;;;;;4994457;28;20409;-50
2022/12/12 08:17:41;;;;;;;26.10;14.77;;;2.60;46.50;;;;;;4994400;28;20535;-50
2022/12/12 08:20:08;;;;;;;21.60;13.65;;;2.70;46.50;;;;;;4994156;28;20250;-49
2022/12/12 08:22:33;;;;;;;21.65;11.88;;;2.70;46.10;;;;;;4994042;28;20771;-51
2022/12/12 08:24:59;;;;;;;28.20;15.70;;;2.70;46.40;;;;;;4994414;28;20186;-49
2022/12/12 08:27:25;;;;;;;26.73;16.30;;;2.70;46.40;;;;;;4994142;28;20182;-50
2022/12/12 08:29:52;;;;;;;27.20;13.45;;;2.80;46.30;;;;;;4994170;28;20238;-50
2022/12/12 08:32:18;;;;;;;25.50;14.65;;;2.90;46.40;;;;;;4993804;28;20621;-50
2022/12/12 08:34:44;;;;;;;23.13;14.27;;;2.90;46.10;;;;;;4994286;28;20259;-51
2022/12/12 08:37:10;;;;;;;27.90;13.20;;;2.90;46.00;;;;;;4994148;28;20464;-50
2022/12/12 08:39:36;;;;;;;25.73;13.93;;;2.90;45.90;;;;;;4994019;28;20838;-49
2022/12/12 08:42:03;;;;;;;25.27;12.60;;;3.00;46.00;;;;;;4993862;28;20209;-50
2022/12/12 08:44:29;;;;;;;20.93;13.63;;;3.00;45.80;;;;;;4993874;28;20177;-50
2022/12/12 08:46:55;;;;;;;40.80;15.77;;;3.10;45.90;;;;;;4993946;28;20187;-50
2022/12/12 08:49:20;;;;;;;27.00;14.37;;;3.10;45.70;;;;;;4993481;28;20469;-50
2022/12/12 08:51:46;;;;;;;24.03;12.60;;;3.10;45.70;;;;;;4993514;28;20464;-48
2022/12/12 08:54:12;;;;;;;23.30;14.20;;;3.00;45.50;;;;;;4993773;28;20190;-50
2022/12/12 08:56:39;;;;;;;21.23;12.40;;;3.10;45.70;;;;;;4993632;28;20171;-50
2022/12/12 08:59:05;;;;;;;23.80;14.65;;;3.00;45.60;;;;;;4993416;28;20289;-50
2022/12/12 09:01:30;;;;;;;21.90;11.45;;;3.00;45.40;;;;;;4993515;28;20273;-50
2022/12/12 09:03:57;;;;;;;25.53;14.00;;;2.90;45.50;;;;;;4993173;28;20277;-50
2022/12/12 09:06:23;;;;;;;26.52;12.88;;;2.90;45.60;;;;;;4993697;28;20270;-50
2022/12/12 09:08:49;;;;;;;23.92;12.52;;;2.90;45.60;;;;;;4993422;28;20767;-51
2022/12/12 09:11:16;;;;;;;28.83;13.48;;;2.90;45.60;;;;;;4993650;28;20250;-51
2022/12/12 09:13:42;;;;;;;30.73;14.98;;;2.80;45.70;;;;;;4993116;28;20178;-51
2022/12/12 09:16:09;;;;;;;18.70;11.68;;;2.80;46.00;;;;;;4993172;28;20175;-50
2022/12/12 09:18:36;;;;;;;24.27;13.65;;;2.80;45.20;;;;;;4993196;28;20175;-50
2022/12/12 09:21:02;;;;;;;19.83;11.95;;;2.80;45.90;;;;;;4993103;28;20189;-51
2022/12/12 09:23:28;;;;;;;24.77;12.95;;;2.90;46.00;;;;;;4992977;28;20190;-51
2022/12/12 09:25:54;;;;;;;24.40;12.53;;;2.90;45.60;;;;;;4993138;28;20209;-50
2022/12/12 09:28:22;;;;;;;21.20;12.95;;;2.90;45.70;;;;;;4993045;28;20418;-50
2022/12/12 09:30:49;;;;;;;21.48;12.75;;;3.10;45.20;;;;;;4992876;28;20183;-49
2022/12/12 09:33:16;;;;;;;27.05;13.18;;;3.10;45.40;;;;;;4992789;28;20192;-50
2022/12/12 09:35:42;;;;;;;20.58;12.43;;;3.00;45.50;;;;;;4992976;28;20652;-50
2022/12/12 09:38:08;;;;;;;22.30;12.88;;;3.10;45.60;;;;;;4993024;28;20544;-51
2022/12/12 09:41:10;;;;;;;19.20;13.02;;;3.10;45.30;;;;;;4993097;28;20590;-51
2022/12/12 09:43:42;;;;;;;21.95;12.15;;;3.10;45.40;;;;;;4980134;28;20703;-50
2022/12/12 09:46:48;;;;;;;20.63;12.48;;;3.10;45.50;;;;;;4992831;28;20632;-50
2022/12/12 09:59:58;;;;;;;21.90;10.90;;;3.20;45.40;;;;;;4992822;28;20630;-50
2022/12/12 10:02:45;;;;;;;26.95;12.93;;;3.30;45.60;;;;;;4992265;28;20184;-50
2022/12/12 10:05:23;;;;;;;18.40;11.30;;;3.30;45.40;;;;;;4992652;28;20183;-49
2022/12/12 10:07:56;;;;;;;23.98;12.85;;;3.40;45.10;;;;;;4992612;28;20205;-49
2022/12/12 10:10:24;;;;;;;20.02;13.35;;;3.40;44.90;;;;;;4992794;28;20563;-49
2022/12/12 10:12:51;;;;;;;21.33;11.73;;;3.30;44.70;;;;;;4992152;28;20553;-48
2022/12/12 10:15:45;;;;;;;25.25;14.27;;;3.40;44.60;;;;;;4992500;28;20668;-48
2022/12/12 10:18:34;;;;;;;21.50;12.98;;;3.40;44.70;;;;;;4992881;28;20199;-50
2022/12/12 10:21:04;;;;;;;19.05;12.60;;;3.40;44.60;;;;;;4992543;28;20159;-50
2022/12/12 10:23:58;;;;;;;23.15;13.85;;;3.40;44.80;;;;;;4992486;28;20186;-48
2022/12/12 10:26:27;;;;;;;21.52;11.73;;;3.50;44.50;;;;;;4992552;28;20175;-48
2022/12/12 10:28:56;;;;;;;24.70;12.82;;;3.30;44.30;;;;;;4992346;28;20699;-48
2022/12/12 10:31:53;;;;;;;23.90;15.20;;;3.20;44.90;;;;;;4992293;28;20370;-48
2022/12/12 10:34:28;;;;;;;19.70;13.05;;;3.30;45.00;;;;;;4994382;28;20170;-48
2022/12/12 10:37:12;;;;;;;21.77;11.85;;;3.30;45.10;;;;;;4996092;28;20236;-48
2022/12/12 10:39:51;;;;;;;20.95;11.90;;;3.30;45.00;;;;;;4996209;28;20201;-48
2022/12/12 10:42:28;;;;;;;25.50;13.55;;;3.30;44.90;;;;;;4996056;28;20170;-48
2022/12/12 10:45:02;;;;;;;19.92;13.30;;;3.30;44.90;;;;;;4996182;28;20302;-51
2022/12/12 10:47:29;;;;;;;19.38;12.13;;;3.30;45.30;;;;;;4996036;28;20182;-50
2022/12/12 10:50:10;;;;;;;21.98;11.18;;;3.30;45.20;;;;;;4995897;28;20214;-50
2022/12/12 10:52:36;;;;;;;19.13;11.02;;;3.20;45.10;;;;;;4995910;28;20205;-50
2022/12/12 10:55:16;;;;;;;22.55;13.48;;;3.20;45.40;;;;;;4996138;28;20194;-50
2022/12/12 10:57:42;;;;;;;21.55;12.65;;;3.20;45.40;;;;;;4995900;28;20258;-50
2022/12/12 11:00:30;;;;;;;19.23;13.10;;;3.20;45.30;;;;;;4995651;28;20286;-50
2022/12/12 11:02:57;;;;;;;19.30;11.10;;;3.30;45.10;;;;;;4995559;28;20605;-50
2022/12/12 11:05:33;;;;;;;22.33;12.00;;;3.30;45.30;;;;;;4995983;28;20199;-51
2022/12/12 11:07:59;;;;;;;24.90;12.88;;;3.30;45.40;;;;;;4995734;28;20599;-53
2022/12/12 11:10:30;;;;;;;18.60;12.50;;;3.40;45.40;;;;;;4995482;28;20262;-50
2022/12/12 11:13:09;;;;;;;18.13;12.18;;;3.40;45.30;;;;;;4977817;28;20225;-50
2022/12/12 11:15:43;;;;;;;24.45;12.02;;;3.50;45.40;;;;;;4995832;28;20181;-48
2022/12/12 11:18:18;;;;;;;21.10;12.20;;;3.50;45.30;;;;;;4995344;28;20178;-49
2022/12/12 11:21:10;;;;;;;18.65;10.57;;;3.40;45.30;;;;;;4995308;28;20667;-49
2022/12/12 11:23:46;;;;;;;15.68;10.02;;;3.40;45.50;;;;;;4995270;28;20767;-49
2022/12/12 11:26:16;;;;;;;23.73;12.00;;;3.40;45.80;;;;;;4995387;28;20175;-49
2022/12/12 11:28:44;;;;;;;19.33;11.80;;;3.30;45.90;;;;;;4995107;28;20551;-49
2022/12/12 11:31:15;;;;;;;25.27;10.63;;;3.40;45.90;;;;;;4995127;28;20217;-49
2022/12/12 11:33:50;;;;;;;25.48;14.48;;;3.40;46.00;;;;;;4995029;28;20174;-49
2022/12/12 11:36:20;;;;;;;20.70;13.40;;;3.50;46.10;;;;;;4995391;28;20163;-48
2022/12/12 11:38:54;;;;;;;22.35;12.60;;;3.60;45.90;;;;;;4995013;28;20676;-49
2022/12/12 11:41:21;;;;;;;22.20;13.27;;;3.60;45.80;;;;;;4995376;28;20246;-49
2022/12/12 11:43:46;;;;;;;25.40;14.02;;;3.60;45.80;;;;;;4994753;28;20208;-50
2022/12/12 11:46:30;;;;;;;17.30;10.63;;;3.60;46.00;;;;;;4995189;28;20780;-49
2022/12/12 11:48:59;;;;;;;24.15;13.02;;;3.50;46.00;;;;;;4994723;28;20218;-49
2022/12/12 11:51:38;;;;;;;19.95;12.43;;;3.40;46.20;;;;;;4995003;28;20199;-49
2022/12/12 11:54:18;;;;;;;15.60;11.35;;;3.50;46.40;;;;;;4994643;28;20514;-50
2022/12/12 11:56:56;;;;;;;16.45;10.82;;;3.50;46.30;;;;;;4994992;28;20186;-48
2022/12/12 12:00:16;;;;;;;23.70;12.98;;;3.50;47.20;;;;;;4994886;28;20549;-49
2022/12/12 12:02:58;;;;;;;23.80;13.80;;;3.60;46.30;;;;;;4915324;29;20189;-50
2022/12/12 12:05:44;;;;;;;23.95;13.02;;;3.60;46.30;;;;;;4915467;29;20196;-49
2022/12/12 12:08:39;;;;;;;17.70;11.35;;;3.50;46.50;;;;;;4915442;29;20268;-50
2022/12/12 12:11:24;;;;;;;22.77;12.27;;;3.60;46.50;;;;;;4915395;29;20795;-49
2022/12/12 12:14:16;;;;;;;24.65;13.73;;;3.40;46.50;;;;;;4915301;29;20161;-50
2022/12/12 12:17:12;;;;;;;21.60;11.52;;;3.40;46.80;;;;;;4915221;29;20227;-52
2022/12/12 12:20:12;;;;;;;24.42;12.77;;;3.50;46.90;;;;;;4915201;29;20198;-50
2022/12/12 12:22:47;;;;;;;29.42;14.65;;;3.50;46.80;;;;;;4914985;29;20333;-51
2022/12/12 12:25:24;;;;;;;23.50;14.20;;;3.50;47.00;;;;;;4915304;29;20179;-51
2022/12/12 12:27:56;;;;;;;31.10;16.30;;;3.60;46.70;;;;;;4915204;29;20173;-50
2022/12/12 12:30:48;;;;;;;25.02;12.93;;;3.70;46.80;;;;;;4915007;29;20206;-49
2022/12/12 12:33:19;;;;;;;20.95;12.82;;;3.80;46.60;;;;;;4911085;29;20194;-49
2022/12/12 12:36:09;;;;;;;21.85;13.10;;;3.90;46.50;;;;;;4923396;28;20579;-49
2022/12/12 12:38:49;;;;;;;20.40;13.45;;;3.80;46.10;;;;;;4993942;28;20623;-49
2022/12/12 12:41:29;;;;;;;20.75;13.55;;;3.80;46.40;;;;;;4994004;28;20545;-50
2022/12/12 12:44:33;;;;;;;22.77;13.45;;;3.80;46.50;;;;;;4993789;28;20541;-50
2022/12/12 12:47:06;;;;;;;28.48;16.75;;;3.80;46.50;;;;;;4993820;28;20177;-50
2022/12/12 12:49:43;;;;;;;26.33;14.57;;;3.80;46.70;;;;;;4993701;28;20219;-50
2022/12/12 12:52:31;;;;;;;20.63;13.65;;;3.70;47.00;;;;;;4993479;28;20684;-50
2022/12/12 12:54:58;;;;;;;29.00;13.00;;;3.70;47.30;;;;;;4993693;28;20179;-51
2022/12/12 12:57:38;;;;;;;21.95;12.85;;;3.60;47.20;;;;;;4993351;28;20225;-49
2022/12/12 13:00:12;;;;;;;26.10;13.63;;;3.70;47.50;;;;;;4993548;28;20184;-49
2022/12/12 13:02:56;;;;;;;27.60;15.10;;;3.80;47.30;;;;;;4993702;28;20159;-49
2022/12/12 13:05:50;;;;;;;23.00;14.18;;;3.80;47.00;;;;;;4993521;28;20167;-49
2022/12/12 13:08:43;;;;;;;21.38;12.48;;;3.70;47.30;;;;;;4993744;28;20167;-49
2022/12/12 13:11:20;;;;;;;22.17;12.75;;;3.60;47.30;;;;;;4993397;28;20194;-49
2022/12/12 13:13:48;;;;;;;18.10;11.68;;;3.60;47.50;;;;;;4993212;28;20164;-49
2022/12/12 13:16:23;;;;;;;29.30;13.80;;;3.50;47.70;;;;;;4993525;28;20258;-49
2022/12/12 13:19:08;;;;;;;21.30;13.48;;;3.60;47.70;;;;;;4993098;28;20201;-49
2022/12/12 13:21:42;;;;;;;25.35;14.13;;;3.60;47.50;;;;;;4993175;28;20194;-49
2022/12/12 13:24:11;;;;;;;21.67;13.65;;;3.70;47.40;;;;;;4993135;28;20205;-49